sensor_id;sensor_type;location;lat;lon;timestamp;temperature;humidity
45715;DHT22;31430;61.646;24.704;2023-02-22T00:00:36;-15.30;99.90
45715;DHT22;31430;61.646;24.704;2023-02-22T00:03:16;-15.20;99.90
45715;DHT22;31430;61.646;24.704;2023-02-22T00:05:44;-15.20;99.90
45715;DHT22;31430;61.646;24.704;2023-02-22T00:08:15;-15.30;99.90
45715;DHT22;31430;61.646;24.704;2023-02-22T00:10:41;-15.40;99.90
45715;DHT22;31430;61.646;24.704;2023-02-22T00:13:08;-15.40;99.90
45715;DHT22;31430;61.646;24.704;2023-02-22T00:15:34;-15.50;99.90
45715;DHT22;31430;61.646;24.704;2023-02-22T00:18:01;-15.60;99.90
45715;DHT22;31430;61.646;24.704;2023-02-22T00:20:27;-15.80;99.90
45715;DHT22;31430;61.646;24.704;2023-02-22T00:22:53;-16.00;99.90
45715;DHT22;31430;61.646;24.704;2023-02-22T00:25:20;-16.00;99.90
45715;DHT22;31430;61.646;24.704;2023-02-22T00:27:47;-16.40;99.90
45715;DHT22;31430;61.646;24.704;2023-02-22T00:30:22;-16.40;99.90
45715;DHT22;31430;61.646;24.704;2023-02-22T00:32:48;-16.30;99.90
45715;DHT22;31430;61.646;24.704;2023-02-22T00:35:19;-16.40;99.90
45715;DHT22;31430;61.646;24.704;2023-02-22T00:37:49;-16.20;99.90
45715;DHT22;31430;61.646;24.704;2023-02-22T00:40:17;-16.00;99.90
45715;DHT22;31430;61.646;24.704;2023-02-22T00:42:43;-16.10;99.90
45715;DHT22;31430;61.646;24.704;2023-02-22T00:45:11;-16.00;99.90
45715;DHT22;31430;61.646;24.704;2023-02-22T00:47:37;-16.20;99.90
45715;DHT22;31430;61.646;24.704;2023-02-22T00:50:03;-16.30;99.90
45715;DHT22;31430;61.646;24.704;2023-02-22T00:52:29;-16.40;99.90
45715;DHT22;31430;61.646;24.704;2023-02-22T00:54:56;-16.40;99.90
45715;DHT22;31430;61.646;24.704;2023-02-22T00:57:23;-16.40;99.90
45715;DHT22;31430;61.646;24.704;2023-02-22T00:59:49;-16.60;99.90
45715;DHT22;31430;61.646;24.704;2023-02-22T01:02:16;-16.80;99.90
45715;DHT22;31430;61.646;24.704;2023-02-22T01:04:42;-17.20;99.90
45715;DHT22;31430;61.646;24.704;2023-02-22T01:07:07;-17.30;99.90
45715;DHT22;31430;61.646;24.704;2023-02-22T01:09:33;-17.30;99.90
45715;DHT22;31430;61.646;24.704;2023-02-22T01:12:00;-17.30;99.90
45715;DHT22;31430;61.646;24.704;2023-02-22T01:14:27;-17.20;99.90
45715;DHT22;31430;61.646;24.704;2023-02-22T01:16:53;-17.30;99.90
45715;DHT22;31430;61.646;24.704;2023-02-22T01:19:20;-17.40;99.90
45715;DHT22;31430;61.646;24.704;2023-02-22T01:21:46;-17.30;99.90
45715;DHT22;31430;61.646;24.704;2023-02-22T01:24:13;-17.00;99.90
45715;DHT22;31430;61.646;24.704;2023-02-22T01:26:49;-17.00;99.90
45715;DHT22;31430;61.646;24.704;2023-02-22T01:29:16;-17.10;99.90
45715;DHT22;31430;61.646;24.704;2023-02-22T01:31:43;-17.20;99.90
45715;DHT22;31430;61.646;24.704;2023-02-22T01:34:16;-17.30;99.90
45715;DHT22;31430;61.646;24.704;2023-02-22T01:36:42;-17.30;99.90
45715;DHT22;31430;61.646;24.704;2023-02-22T01:39:08;-17.30;99.90
45715;DHT22;31430;61.646;24.704;2023-02-22T01:41:35;-17.50;99.90
45715;DHT22;31430;61.646;24.704;2023-02-22T01:46:56;-17.60;99.90
45715;DHT22;31430;61.646;24.704;2023-02-22T01:49:25;-17.70;99.90
45715;DHT22;31430;61.646;24.704;2023-02-22T01:51:54;-17.60;99.90
45715;DHT22;31430;61.646;24.704;2023-02-22T01:54:26;-18.00;99.90
45715;DHT22;31430;61.646;24.704;2023-02-22T01:59:47;-18.10;99.90
45715;DHT22;31430;61.646;24.704;2023-02-22T02:02:13;-18.00;99.90
45715;DHT22;31430;61.646;24.704;2023-02-22T02:04:39;-18.10;99.90
45715;DHT22;31430;61.646;24.704;2023-02-22T02:07:09;-18.10;99.90
45715;DHT22;31430;61.646;24.704;2023-02-22T02:09:58;-18.20;99.90
45715;DHT22;31430;61.646;24.704;2023-02-22T02:12:25;-18.10;99.90
45715;DHT22;31430;61.646;24.704;2023-02-22T02:14:51;-18.20;99.90
45715;DHT22;31430;61.646;24.704;2023-02-22T02:17:20;-18.30;99.90
45715;DHT22;31430;61.646;24.704;2023-02-22T02:22:39;-18.70;99.90
45715;DHT22;31430;61.646;24.704;2023-02-22T02:31:12;-19.10;99.90
45715;DHT22;31430;61.646;24.704;2023-02-22T02:36:20;-19.10;99.90
45715;DHT22;31430;61.646;24.704;2023-02-22T02:39:01;-19.40;99.90
45715;DHT22;31430;61.646;24.704;2023-02-22T02:41:34;-19.50;99.90
45715;DHT22;31430;61.646;24.704;2023-02-22T02:46:37;-19.10;99.90
45715;DHT22;31430;61.646;24.704;2023-02-22T02:49:14;-19.00;99.90
45715;DHT22;31430;61.646;24.704;2023-02-22T02:51:45;-18.70;99.90
45715;DHT22;31430;61.646;24.704;2023-02-22T02:54:13;-18.80;99.90
45715;DHT22;31430;61.646;24.704;2023-02-22T02:56:40;-18.80;99.90
45715;DHT22;31430;61.646;24.704;2023-02-22T02:59:27;-19.20;99.90
45715;DHT22;31430;61.646;24.704;2023-02-22T03:07:17;-19.30;99.90
45715;DHT22;31430;61.646;24.704;2023-02-22T03:10:30;-19.20;99.90
45715;DHT22;31430;61.646;24.704;2023-02-22T03:18:39;-19.70;99.90
45715;DHT22;31430;61.646;24.704;2023-02-22T03:24:38;-19.70;99.90
45715;DHT22;31430;61.646;24.704;2023-02-22T03:27:30;-19.70;99.90
45715;DHT22;31430;61.646;24.704;2023-02-22T03:30:01;-19.60;99.90
45715;DHT22;31430;61.646;24.704;2023-02-22T03:32:32;-19.90;99.90
45715;DHT22;31430;61.646;24.704;2023-02-22T03:35:09;-20.10;99.90
45715;DHT22;31430;61.646;24.704;2023-02-22T03:37:40;-20.20;99.90
45715;DHT22;31430;61.646;24.704;2023-02-22T03:40:13;-20.10;99.90
45715;DHT22;31430;61.646;24.704;2023-02-22T03:42:45;-20.00;99.90
45715;DHT22;31430;61.646;24.704;2023-02-22T03:45:14;-20.10;99.90
45715;DHT22;31430;61.646;24.704;2023-02-22T03:47:47;-19.90;99.90
45715;DHT22;31430;61.646;24.704;2023-02-22T03:50:24;-19.80;99.90
45715;DHT22;31430;61.646;24.704;2023-02-22T03:52:52;-19.70;99.90
45715;DHT22;31430;61.646;24.704;2023-02-22T03:55:18;-19.80;99.90
45715;DHT22;31430;61.646;24.704;2023-02-22T03:58:00;-20.00;99.90
45715;DHT22;31430;61.646;24.704;2023-02-22T04:00:29;-20.00;99.90
45715;DHT22;31430;61.646;24.704;2023-02-22T04:03:20;-20.30;99.90
45715;DHT22;31430;61.646;24.704;2023-02-22T04:05:46;-20.60;99.90
45715;DHT22;31430;61.646;24.704;2023-02-22T04:08:12;-20.80;99.90
45715;DHT22;31430;61.646;24.704;2023-02-22T04:10:37;-20.80;99.90
45715;DHT22;31430;61.646;24.704;2023-02-22T04:13:03;-20.70;99.90
45715;DHT22;31430;61.646;24.704;2023-02-22T04:15:31;-20.60;99.90
45715;DHT22;31430;61.646;24.704;2023-02-22T04:17:58;-20.80;99.90
45715;DHT22;31430;61.646;24.704;2023-02-22T04:20:24;-20.60;99.90
45715;DHT22;31430;61.646;24.704;2023-02-22T04:22:52;-20.60;99.90
45715;DHT22;31430;61.646;24.704;2023-02-22T04:25:19;-20.50;99.90
45715;DHT22;31430;61.646;24.704;2023-02-22T04:27:45;-20.50;99.90
45715;DHT22;31430;61.646;24.704;2023-02-22T04:30:11;-20.50;99.90
45715;DHT22;31430;61.646;24.704;2023-02-22T04:32:37;-20.80;99.90
45715;DHT22;31430;61.646;24.704;2023-02-22T04:35:04;-21.10;99.90
45715;DHT22;31430;61.646;24.704;2023-02-22T04:37:30;-21.10;99.90
45715;DHT22;31430;61.646;24.704;2023-02-22T04:39:59;-21.20;99.90
45715;DHT22;31430;61.646;24.704;2023-02-22T04:42:25;-21.20;99.90
45715;DHT22;31430;61.646;24.704;2023-02-22T04:44:51;-21.10;99.90
45715;DHT22;31430;61.646;24.704;2023-02-22T04:47:17;-20.90;99.90
45715;DHT22;31430;61.646;24.704;2023-02-22T04:49:42;-21.00;99.90
45715;DHT22;31430;61.646;24.704;2023-02-22T04:52:08;-20.80;99.90
45715;DHT22;31430;61.646;24.704;2023-02-22T04:54:34;-20.80;99.90
45715;DHT22;31430;61.646;24.704;2023-02-22T04:56:59;-20.80;99.90
45715;DHT22;31430;61.646;24.704;2023-02-22T04:59:25;-20.90;99.90
45715;DHT22;31430;61.646;24.704;2023-02-22T05:01:51;-21.00;99.90
45715;DHT22;31430;61.646;24.704;2023-02-22T05:04:16;-21.50;99.90
45715;DHT22;31430;61.646;24.704;2023-02-22T05:06:42;-21.90;99.90
45715;DHT22;31430;61.646;24.704;2023-02-22T05:09:08;-22.10;99.90
45715;DHT22;31430;61.646;24.704;2023-02-22T05:11:33;-22.20;99.90
45715;DHT22;31430;61.646;24.704;2023-02-22T05:13:59;-22.10;99.90
45715;DHT22;31430;61.646;24.704;2023-02-22T05:16:25;-22.20;99.90
45715;DHT22;31430;61.646;24.704;2023-02-22T05:18:51;-22.00;99.90
45715;DHT22;31430;61.646;24.704;2023-02-22T05:21:16;-21.90;99.90
45715;DHT22;31430;61.646;24.704;2023-02-22T05:23:42;-21.90;99.90
45715;DHT22;31430;61.646;24.704;2023-02-22T05:26:08;-21.70;99.90
45715;DHT22;31430;61.646;24.704;2023-02-22T05:28:34;-21.80;99.90
45715;DHT22;31430;61.646;24.704;2023-02-22T05:31:00;-21.60;99.90
45715;DHT22;31430;61.646;24.704;2023-02-22T05:33:26;-21.70;99.90
45715;DHT22;31430;61.646;24.704;2023-02-22T05:35:52;-21.70;99.90
45715;DHT22;31430;61.646;24.704;2023-02-22T05:38:20;-21.70;99.90
45715;DHT22;31430;61.646;24.704;2023-02-22T05:40:47;-21.60;99.90
45715;DHT22;31430;61.646;24.704;2023-02-22T05:43:13;-21.90;99.90
45715;DHT22;31430;61.646;24.704;2023-02-22T05:45:40;-22.20;99.90
45715;DHT22;31430;61.646;24.704;2023-02-22T05:48:06;-22.20;99.90
45715;DHT22;31430;61.646;24.704;2023-02-22T05:50:35;-22.30;99.90
45715;DHT22;31430;61.646;24.704;2023-02-22T05:53:01;-22.10;99.90
45715;DHT22;31430;61.646;24.704;2023-02-22T05:55:26;-22.00;99.90
45715;DHT22;31430;61.646;24.704;2023-02-22T05:57:53;-21.90;99.90
45715;DHT22;31430;61.646;24.704;2023-02-22T06:00:27;-21.90;99.90
45715;DHT22;31430;61.646;24.704;2023-02-22T06:03:00;-22.10;99.90
45715;DHT22;31430;61.646;24.704;2023-02-22T06:05:27;-22.00;99.90
45715;DHT22;31430;61.646;24.704;2023-02-22T06:07:54;-22.00;99.90
45715;DHT22;31430;61.646;24.704;2023-02-22T06:10:20;-21.90;99.90
45715;DHT22;31430;61.646;24.704;2023-02-22T06:12:46;-21.90;99.90
45715;DHT22;31430;61.646;24.704;2023-02-22T06:15:17;-21.50;99.90
45715;DHT22;31430;61.646;24.704;2023-02-22T06:17:43;-21.40;99.90
45715;DHT22;31430;61.646;24.704;2023-02-22T06:20:12;-21.00;99.90
45715;DHT22;31430;61.646;24.704;2023-02-22T06:22:38;-20.90;99.90
45715;DHT22;31430;61.646;24.704;2023-02-22T06:25:06;-21.20;99.90
45715;DHT22;31430;61.646;24.704;2023-02-22T06:27:32;-21.60;98.70
45715;DHT22;31430;61.646;24.704;2023-02-22T06:29:59;-22.00;97.80
45715;DHT22;31430;61.646;24.704;2023-02-22T06:32:25;-21.60;99.10
45715;DHT22;31430;61.646;24.704;2023-02-22T06:34:50;-21.60;98.90
45715;DHT22;31430;61.646;24.704;2023-02-22T06:37:16;-21.60;99.90
45715;DHT22;31430;61.646;24.704;2023-02-22T06:39:42;-21.20;99.90
45715;DHT22;31430;61.646;24.704;2023-02-22T06:42:07;-21.00;99.90
45715;DHT22;31430;61.646;24.704;2023-02-22T06:44:33;-20.90;99.90
45715;DHT22;31430;61.646;24.704;2023-02-22T06:46:59;-21.00;99.90
45715;DHT22;31430;61.646;24.704;2023-02-22T06:49:26;-20.80;99.90
45715;DHT22;31430;61.646;24.704;2023-02-22T06:51:52;-20.50;99.90
45715;DHT22;31430;61.646;24.704;2023-02-22T06:54:18;-20.50;98.80
45715;DHT22;31430;61.646;24.704;2023-02-22T06:56:44;-20.50;99.90
45715;DHT22;31430;61.646;24.704;2023-02-22T06:59:10;-20.50;99.90
45715;DHT22;31430;61.646;24.704;2023-02-22T07:01:36;-21.00;94.60
45715;DHT22;31430;61.646;24.704;2023-02-22T07:04:01;-21.00;95.00
45715;DHT22;31430;61.646;24.704;2023-02-22T07:06:27;-20.90;94.50
45715;DHT22;31430;61.646;24.704;2023-02-22T07:08:53;-21.00;95.80
45715;DHT22;31430;61.646;24.704;2023-02-22T07:11:19;-20.80;97.70
45715;DHT22;31430;61.646;24.704;2023-02-22T07:13:44;-20.60;97.50
45715;DHT22;31430;61.646;24.704;2023-02-22T07:16:10;-20.50;97.20
45715;DHT22;31430;61.646;24.704;2023-02-22T07:18:36;-20.80;97.20
45715;DHT22;31430;61.646;24.704;2023-02-22T07:21:03;-20.70;98.80
45715;DHT22;31430;61.646;24.704;2023-02-22T07:23:29;-21.00;96.30
45715;DHT22;31430;61.646;24.704;2023-02-22T07:25:58;-21.10;97.10
45715;DHT22;31430;61.646;24.704;2023-02-22T07:28:24;-20.90;99.00
45715;DHT22;31430;61.646;24.704;2023-02-22T07:30:49;-20.70;96.90
45715;DHT22;31430;61.646;24.704;2023-02-22T07:33:15;-20.60;97.70
45715;DHT22;31430;61.646;24.704;2023-02-22T07:35:46;-20.60;99.10
45715;DHT22;31430;61.646;24.704;2023-02-22T07:38:13;-20.50;99.90
45715;DHT22;31430;61.646;24.704;2023-02-22T07:40:39;-20.30;99.90
45715;DHT22;31430;61.646;24.704;2023-02-22T07:43:26;-20.10;99.90
45715;DHT22;31430;61.646;24.704;2023-02-22T07:45:54;-19.70;99.90
45715;DHT22;31430;61.646;24.704;2023-02-22T07:48:23;-19.40;99.90
45715;DHT22;31430;61.646;24.704;2023-02-22T07:50:49;-19.50;99.90
45715;DHT22;31430;61.646;24.704;2023-02-22T07:53:21;-19.40;99.90
45715;DHT22;31430;61.646;24.704;2023-02-22T07:55:47;-19.20;99.90
45715;DHT22;31430;61.646;24.704;2023-02-22T07:58:18;-19.10;99.90
45715;DHT22;31430;61.646;24.704;2023-02-22T08:00:44;-18.80;99.90
45715;DHT22;31430;61.646;24.704;2023-02-22T08:03:13;-18.50;99.90
45715;DHT22;31430;61.646;24.704;2023-02-22T08:05:43;-18.40;99.90
45715;DHT22;31430;61.646;24.704;2023-02-22T08:08:10;-18.30;99.90
45715;DHT22;31430;61.646;24.704;2023-02-22T08:10:35;-18.00;99.90
45715;DHT22;31430;61.646;24.704;2023-02-22T08:13:02;-17.90;99.90
45715;DHT22;31430;61.646;24.704;2023-02-22T08:15:29;-17.80;99.90
45715;DHT22;31430;61.646;24.704;2023-02-22T08:17:59;-17.70;99.90
45715;DHT22;31430;61.646;24.704;2023-02-22T08:20:26;-17.80;99.90
45715;DHT22;31430;61.646;24.704;2023-02-22T08:22:53;-18.00;99.90
45715;DHT22;31430;61.646;24.704;2023-02-22T08:25:20;-18.40;99.40
45715;DHT22;31430;61.646;24.704;2023-02-22T08:27:47;-18.40;99.90
45715;DHT22;31430;61.646;24.704;2023-02-22T08:30:16;-17.90;99.90
45715;DHT22;31430;61.646;24.704;2023-02-22T08:32:42;-17.90;99.90
45715;DHT22;31430;61.646;24.704;2023-02-22T08:35:09;-17.60;99.90
45715;DHT22;31430;61.646;24.704;2023-02-22T08:37:35;-17.20;99.90
45715;DHT22;31430;61.646;24.704;2023-02-22T08:40:01;-17.00;99.90
45715;DHT22;31430;61.646;24.704;2023-02-22T08:42:26;-16.80;99.90
45715;DHT22;31430;61.646;24.704;2023-02-22T08:44:52;-16.50;99.90
45715;DHT22;31430;61.646;24.704;2023-02-22T08:47:17;-16.80;99.90
45715;DHT22;31430;61.646;24.704;2023-02-22T08:49:44;-16.60;99.90
45715;DHT22;31430;61.646;24.704;2023-02-22T08:52:09;-16.30;99.90
45715;DHT22;31430;61.646;24.704;2023-02-22T08:54:35;-15.90;99.90
45715;DHT22;31430;61.646;24.704;2023-02-22T08:57:01;-15.90;99.90
45715;DHT22;31430;61.646;24.704;2023-02-22T08:59:26;-15.70;99.90
45715;DHT22;31430;61.646;24.704;2023-02-22T09:01:52;-15.60;99.90
45715;DHT22;31430;61.646;24.704;2023-02-22T09:04:19;-15.70;99.90
45715;DHT22;31430;61.646;24.704;2023-02-22T09:06:44;-15.70;99.90
45715;DHT22;31430;61.646;24.704;2023-02-22T09:09:16;-15.50;99.90
45715;DHT22;31430;61.646;24.704;2023-02-22T09:11:44;-15.50;99.90
45715;DHT22;31430;61.646;24.704;2023-02-22T09:14:10;-15.50;99.90
45715;DHT22;31430;61.646;24.704;2023-02-22T09:16:36;-15.40;99.90
45715;DHT22;31430;61.646;24.704;2023-02-22T09:19:02;-15.20;99.90
45715;DHT22;31430;61.646;24.704;2023-02-22T09:21:28;-15.30;99.90
45715;DHT22;31430;61.646;24.704;2023-02-22T09:23:54;-15.00;99.90
45715;DHT22;31430;61.646;24.704;2023-02-22T09:26:20;-14.90;99.90
45715;DHT22;31430;61.646;24.704;2023-02-22T09:28:48;-15.00;99.90
45715;DHT22;31430;61.646;24.704;2023-02-22T09:31:14;-14.70;99.90
45715;DHT22;31430;61.646;24.704;2023-02-22T09:33:41;-14.70;99.90
45715;DHT22;31430;61.646;24.704;2023-02-22T09:36:06;-14.50;99.90
45715;DHT22;31430;61.646;24.704;2023-02-22T09:38:32;-14.70;99.90
45715;DHT22;31430;61.646;24.704;2023-02-22T09:46:36;-14.00;99.90
45715;DHT22;31430;61.646;24.704;2023-02-22T09:51:42;-13.80;99.90
45715;DHT22;31430;61.646;24.704;2023-02-22T09:54:19;-13.60;99.90
45715;DHT22;31430;61.646;24.704;2023-02-22T09:56:47;-13.50;99.90
45715;DHT22;31430;61.646;24.704;2023-02-22T09:59:21;-13.50;99.90
45715;DHT22;31430;61.646;24.704;2023-02-22T10:01:52;-13.20;99.90
45715;DHT22;31430;61.646;24.704;2023-02-22T10:04:40;-13.10;99.90
45715;DHT22;31430;61.646;24.704;2023-02-22T10:09:41;-13.10;99.90
45715;DHT22;31430;61.646;24.704;2023-02-22T10:12:13;-13.00;99.90
45715;DHT22;31430;61.646;24.704;2023-02-22T10:25:38;-12.80;99.90
45715;DHT22;31430;61.646;24.704;2023-02-22T10:28:20;-12.80;99.90
45715;DHT22;31430;61.646;24.704;2023-02-22T10:31:11;-12.80;99.90
45715;DHT22;31430;61.646;24.704;2023-02-22T10:33:46;-12.50;99.90
45715;DHT22;31430;61.646;24.704;2023-02-22T10:36:18;-12.30;99.90
45715;DHT22;31430;61.646;24.704;2023-02-22T10:38:54;-12.40;99.90
45715;DHT22;31430;61.646;24.704;2023-02-22T10:41:26;-12.40;99.90
45715;DHT22;31430;61.646;24.704;2023-02-22T10:43:52;-12.20;99.90
45715;DHT22;31430;61.646;24.704;2023-02-22T10:46:20;-12.20;99.90
45715;DHT22;31430;61.646;24.704;2023-02-22T10:48:49;-12.10;99.90
45715;DHT22;31430;61.646;24.704;2023-02-22T10:51:16;-12.00;99.90
45715;DHT22;31430;61.646;24.704;2023-02-22T10:53:42;-12.00;99.90
45715;DHT22;31430;61.646;24.704;2023-02-22T10:56:22;-11.90;99.90
45715;DHT22;31430;61.646;24.704;2023-02-22T11:04:19;-11.60;99.90
45715;DHT22;31430;61.646;24.704;2023-02-22T11:07:12;-11.60;99.90
45715;DHT22;31430;61.646;24.704;2023-02-22T11:09:52;-11.50;99.90
45715;DHT22;31430;61.646;24.704;2023-02-22T11:14:53;-11.10;99.90
45715;DHT22;31430;61.646;24.704;2023-02-22T11:17:27;-11.00;99.90
45715;DHT22;31430;61.646;24.704;2023-02-22T11:19:54;-10.80;99.90
45715;DHT22;31430;61.646;24.704;2023-02-22T11:24:52;-10.60;99.90
45715;DHT22;31430;61.646;24.704;2023-02-22T11:27:39;-10.80;99.90
45715;DHT22;31430;61.646;24.704;2023-02-22T11:33:18;-10.50;99.90
45715;DHT22;31430;61.646;24.704;2023-02-22T11:38:53;-10.20;99.90
45715;DHT22;31430;61.646;24.704;2023-02-22T11:43:51;-9.90;99.90
45715;DHT22;31430;61.646;24.704;2023-02-22T11:46:24;-9.70;99.90
45715;DHT22;31430;61.646;24.704;2023-02-22T11:49:07;-9.50;99.90
45715;DHT22;31430;61.646;24.704;2023-02-22T11:54:27;-9.20;97.20
45715;DHT22;31430;61.646;24.704;2023-02-22T11:57:20;-9.50;99.30
45715;DHT22;31430;61.646;24.704;2023-02-22T12:05:14;-8.90;97.20
45715;DHT22;31430;61.646;24.704;2023-02-22T12:18:23;-8.80;96.20
45715;DHT22;31430;61.646;24.704;2023-02-22T12:20:56;-8.60;96.30
45715;DHT22;31430;61.646;24.704;2023-02-22T12:26:23;-8.60;94.90
45715;DHT22;31430;61.646;24.704;2023-02-22T12:33:54;-8.60;95.70
45715;DHT22;31430;61.646;24.704;2023-02-22T12:36:29;-8.70;95.80
45715;DHT22;31430;61.646;24.704;2023-02-22T12:39:03;-8.80;96.40
45715;DHT22;31430;61.646;24.704;2023-02-22T12:41:32;-8.80;97.00
45715;DHT22;31430;61.646;24.704;2023-02-22T12:44:08;-8.90;97.10
45715;DHT22;31430;61.646;24.704;2023-02-22T12:49:24;-9.00;98.10
45715;DHT22;31430;61.646;24.704;2023-02-22T12:52:09;-9.10;99.70
45715;DHT22;31430;61.646;24.704;2023-02-22T13:03:32;-9.00;97.80
45715;DHT22;31430;61.646;24.704;2023-02-22T13:09:06;-9.20;99.90
45715;DHT22;31430;61.646;24.704;2023-02-22T13:17:00;-9.00;99.60
45715;DHT22;31430;61.646;24.704;2023-02-22T13:25:08;-9.00;99.00
45715;DHT22;31430;61.646;24.704;2023-02-22T13:44:11;-9.10;99.90
45715;DHT22;31430;61.646;24.704;2023-02-22T13:46:58;-9.10;99.90
45715;DHT22;31430;61.646;24.704;2023-02-22T13:52:20;-8.60;97.70
45715;DHT22;31430;61.646;24.704;2023-02-22T13:57:24;-8.70;98.30
45715;DHT22;31430;61.646;24.704;2023-02-22T14:13:10;-9.00;98.50
45715;DHT22;31430;61.646;24.704;2023-02-22T14:21:12;-9.10;99.90
45715;DHT22;31430;61.646;24.704;2023-02-22T14:32:20;-9.40;99.90
45715;DHT22;31430;61.646;24.704;2023-02-22T14:37:17;-9.50;99.90
45715;DHT22;31430;61.646;24.704;2023-02-22T14:55:51;-10.80;99.90
45715;DHT22;31430;61.646;24.704;2023-02-22T14:58:32;-11.00;99.90
45715;DHT22;31430;61.646;24.704;2023-02-22T15:01:15;-11.20;99.90
45715;DHT22;31430;61.646;24.704;2023-02-22T15:03:45;-11.30;99.90
45715;DHT22;31430;61.646;24.704;2023-02-22T15:06:17;-11.40;99.90
45715;DHT22;31430;61.646;24.704;2023-02-22T15:08:45;-11.50;99.90
45715;DHT22;31430;61.646;24.704;2023-02-22T15:11:27;-11.70;99.90
45715;DHT22;31430;61.646;24.704;2023-02-22T15:13:57;-12.10;99.90
45715;DHT22;31430;61.646;24.704;2023-02-22T15:16:27;-12.20;99.90
45715;DHT22;31430;61.646;24.704;2023-02-22T15:18:56;-12.40;99.90
45715;DHT22;31430;61.646;24.704;2023-02-22T15:21:26;-12.50;99.90
45715;DHT22;31430;61.646;24.704;2023-02-22T15:26:40;-12.70;99.90
45715;DHT22;31430;61.646;24.704;2023-02-22T15:29:24;-13.00;99.90
45715;DHT22;31430;61.646;24.704;2023-02-22T15:31:51;-13.10;99.90
45715;DHT22;31430;61.646;24.704;2023-02-22T15:36:53;-13.30;99.90
45715;DHT22;31430;61.646;24.704;2023-02-22T15:39:27;-13.40;99.90
45715;DHT22;31430;61.646;24.704;2023-02-22T15:42:11;-13.40;99.90
45715;DHT22;31430;61.646;24.704;2023-02-22T15:44:50;-13.60;99.90
45715;DHT22;31430;61.646;24.704;2023-02-22T15:47:20;-13.80;99.90
45715;DHT22;31430;61.646;24.704;2023-02-22T15:55:31;-14.00;99.90
45715;DHT22;31430;61.646;24.704;2023-02-22T15:58:21;-14.10;99.90
45715;DHT22;31430;61.646;24.704;2023-02-22T16:01:02;-14.30;99.90
45715;DHT22;31430;61.646;24.704;2023-02-22T16:03:38;-14.50;99.90
45715;DHT22;31430;61.646;24.704;2023-02-22T16:06:54;-14.60;99.90
45715;DHT22;31430;61.646;24.704;2023-02-22T16:09:23;-14.60;99.90
45715;DHT22;31430;61.646;24.704;2023-02-22T16:11:49;-14.70;99.90
45715;DHT22;31430;61.646;24.704;2023-02-22T16:14:30;-14.80;99.90
45715;DHT22;31430;61.646;24.704;2023-02-22T16:22:39;-15.00;99.90
45715;DHT22;31430;61.646;24.704;2023-02-22T16:27:45;-15.20;99.90
45715;DHT22;31430;61.646;24.704;2023-02-22T16:32:42;-15.40;99.90
45715;DHT22;31430;61.646;24.704;2023-02-22T16:35:08;-15.40;99.90
45715;DHT22;31430;61.646;24.704;2023-02-22T16:38:01;-15.30;99.90
45715;DHT22;31430;61.646;24.704;2023-02-22T16:40:31;-15.40;99.90
45715;DHT22;31430;61.646;24.704;2023-02-22T16:43:07;-15.80;99.90
45715;DHT22;31430;61.646;24.704;2023-02-22T16:45:33;-16.00;99.90
45715;DHT22;31430;61.646;24.704;2023-02-22T16:48:01;-16.00;99.90
45715;DHT22;31430;61.646;24.704;2023-02-22T16:50:35;-16.20;99.90
45715;DHT22;31430;61.646;24.704;2023-02-22T16:53:01;-16.30;99.90
45715;DHT22;31430;61.646;24.704;2023-02-22T16:55:27;-16.50;99.90
45715;DHT22;31430;61.646;24.704;2023-02-22T16:57:55;-16.50;99.90
45715;DHT22;31430;61.646;24.704;2023-02-22T17:00:25;-16.50;99.90
45715;DHT22;31430;61.646;24.704;2023-02-22T17:03:03;-16.50;99.90
45715;DHT22;31430;61.646;24.704;2023-02-22T17:05:30;-16.40;99.90
45715;DHT22;31430;61.646;24.704;2023-02-22T17:07:56;-16.40;99.90
45715;DHT22;31430;61.646;24.704;2023-02-22T17:10:22;-16.50;99.90
45715;DHT22;31430;61.646;24.704;2023-02-22T17:12:49;-16.60;99.90
45715;DHT22;31430;61.646;24.704;2023-02-22T17:15:21;-16.70;99.90
45715;DHT22;31430;61.646;24.704;2023-02-22T17:17:48;-16.70;99.90
45715;DHT22;31430;61.646;24.704;2023-02-22T17:20:14;-16.80;99.90
45715;DHT22;31430;61.646;24.704;2023-02-22T17:22:40;-16.80;99.90
45715;DHT22;31430;61.646;24.704;2023-02-22T17:25:42;-16.80;99.90
45715;DHT22;31430;61.646;24.704;2023-02-22T17:28:08;-16.80;99.90
45715;DHT22;31430;61.646;24.704;2023-02-22T17:30:35;-16.80;99.90
45715;DHT22;31430;61.646;24.704;2023-02-22T17:33:03;-16.70;99.90
45715;DHT22;31430;61.646;24.704;2023-02-22T17:35:30;-16.90;99.90
45715;DHT22;31430;61.646;24.704;2023-02-22T17:37:58;-17.10;99.90
45715;DHT22;31430;61.646;24.704;2023-02-22T17:40:25;-17.20;99.90
45715;DHT22;31430;61.646;24.704;2023-02-22T17:42:50;-17.40;99.90
45715;DHT22;31430;61.646;24.704;2023-02-22T17:45:21;-17.90;99.90
45715;DHT22;31430;61.646;24.704;2023-02-22T17:47:48;-17.80;99.90
45715;DHT22;31430;61.646;24.704;2023-02-22T17:50:14;-17.50;99.90
45715;DHT22;31430;61.646;24.704;2023-02-22T17:52:42;-17.60;99.90
45715;DHT22;31430;61.646;24.704;2023-02-22T17:55:08;-17.70;99.90
45715;DHT22;31430;61.646;24.704;2023-02-22T17:57:34;-17.70;99.90
45715;DHT22;31430;61.646;24.704;2023-02-22T18:00:03;-17.70;99.90
45715;DHT22;31430;61.646;24.704;2023-02-22T18:02:37;-17.80;99.90
45715;DHT22;31430;61.646;24.704;2023-02-22T18:05:04;-17.90;99.90
45715;DHT22;31430;61.646;24.704;2023-02-22T18:07:29;-18.00;99.90
45715;DHT22;31430;61.646;24.704;2023-02-22T18:09:56;-18.00;99.90
45715;DHT22;31430;61.646;24.704;2023-02-22T18:12:22;-18.30;99.90
45715;DHT22;31430;61.646;24.704;2023-02-22T18:14:49;-18.30;99.90
45715;DHT22;31430;61.646;24.704;2023-02-22T18:17:14;-18.20;99.90
45715;DHT22;31430;61.646;24.704;2023-02-22T18:19:40;-18.70;99.90
45715;DHT22;31430;61.646;24.704;2023-02-22T18:22:06;-18.70;99.90
45715;DHT22;31430;61.646;24.704;2023-02-22T18:24:33;-18.70;99.90
45715;DHT22;31430;61.646;24.704;2023-02-22T18:27:00;-18.50;99.90
45715;DHT22;31430;61.646;24.704;2023-02-22T18:29:30;-18.60;99.90
45715;DHT22;31430;61.646;24.704;2023-02-22T18:31:56;-18.40;99.90
45715;DHT22;31430;61.646;24.704;2023-02-22T18:34:22;-18.50;99.90
45715;DHT22;31430;61.646;24.704;2023-02-22T18:36:53;-18.40;99.90
45715;DHT22;31430;61.646;24.704;2023-02-22T18:39:18;-18.30;99.90
45715;DHT22;31430;61.646;24.704;2023-02-22T18:41:44;-18.50;99.90
45715;DHT22;31430;61.646;24.704;2023-02-22T18:44:14;-18.50;99.90
45715;DHT22;31430;61.646;24.704;2023-02-22T18:46:40;-18.30;99.90
45715;DHT22;31430;61.646;24.704;2023-02-22T18:49:05;-18.40;99.90
45715;DHT22;31430;61.646;24.704;2023-02-22T18:51:32;-18.30;99.90
45715;DHT22;31430;61.646;24.704;2023-02-22T18:53:58;-18.50;99.90